Time;durP1;ratioP1;P1;durP2;ratioP2;P2;SDS_P1;SDS_P2;PMS_P1;PMS_P2;Temp;Humidity;BMP_temperature;BMP_pressure;BME280_temperature;BME280_humidity;BME280_pressure;Samples;Min_cycle;Max_cycle;Signal;HPM_P1;HPM_P2
2022/09/05 00:01:31;;;;;;;6.15;1.90;;;;;;;;;;5085902;28;20026;-68
2022/09/05 00:04:00;;;;;;;3.78;1.63;;;;;;;;;;5086245;28;20383;-68
2022/09/05 00:06:27;;;;;;;3.22;1.88;;;;;;;;;;5089391;28;20495;-68
2022/09/05 00:09:01;;;;;;;4.82;1.77;;;;;;;;;;5089875;28;20036;-68
2022/09/05 00:11:32;;;;;;;7.57;2.28;;;;;;;;;;5088948;28;20456;-68
2022/09/05 00:14:00;;;;;;;2.83;1.90;;;;;;;;;;5090896;28;20024;-69
2022/09/05 00:16:54;;;;;;;2.08;1.67;;;;;;;;;;5074807;28;20021;-68
2022/09/05 00:19:28;;;;;;;11.48;2.03;;;;;;;;;;5088800;28;20395;-68
2022/09/05 00:22:01;;;;;;;4.55;1.90;;;;;;;;;;5078275;28;20020;-68
2022/09/05 00:24:45;;;;;;;4.05;1.80;;;;;;;;;;5083146;28;20024;-67
2022/09/05 00:27:25;;;;;;;3.05;1.70;;;;;;;;;;5087891;28;20054;-67
2022/09/05 00:30:09;;;;;;;3.40;2.15;;;;;;;;;;5090769;28;20099;-69
2022/09/05 00:32:47;;;;;;;2.63;1.92;;;;;;;;;;5089744;28;20020;-69
2022/09/05 00:35:34;;;;;;;2.83;1.75;;;;;;;;;;5088861;28;20019;-68
2022/09/05 00:38:10;;;;;;;2.65;1.63;;;;;;;;;;5089063;28;20016;-69
2022/09/05 00:40:38;;;;;;;3.35;1.90;;;;;;;;;;5070826;28;20016;-67
2022/09/05 00:43:05;;;;;;;4.38;1.85;;;;;;;;;;5078848;28;20021;-67
2022/09/05 00:45:38;;;;;;;3.25;1.73;;;;;;;;;;5079335;28;20385;-69
2022/09/05 00:48:16;;;;;;;4.57;2.17;;;;;;;;;;5087700;28;20024;-67
2022/09/05 00:51:00;;;;;;;3.92;2.00;;;;;;;;;;5077702;28;20066;-67
2022/09/05 00:53:35;;;;;;;3.78;2.10;;;;;;;;;;5084650;28;20703;-67
2022/09/05 00:56:06;;;;;;;5.57;1.98;;;;;;;;;;5086352;28;20074;-68
2022/09/05 00:58:31;;;;;;;4.60;1.77;;;;;;;;;;5081287;28;20350;-67
2022/09/05 01:00:58;;;;;;;3.33;1.90;;;;;;;;;;5084895;28;20593;-69
2022/09/05 01:03:41;;;;;;;5.65;1.48;;;;;;;;;;5081908;28;20024;-67
2022/09/05 01:06:25;;;;;;;5.63;1.58;;;;;;;;;;5088739;28;20698;-67
2022/09/05 01:09:03;;;;;;;2.38;1.80;;;;;;;;;;5086841;28;20024;-67
2022/09/05 01:11:49;;;;;;;2.63;1.73;;;;;;;;;;5086371;28;20028;-67
2022/09/05 01:14:23;;;;;;;3.22;2.00;;;;;;;;;;5081613;28;20468;-67
2022/09/05 01:17:07;;;;;;;2.85;1.70;;;;;;;;;;5086969;28;20032;-67
2022/09/05 01:19:51;;;;;;;7.72;2.38;;;;;;;;;;5088491;28;20020;-70
2022/09/05 01:22:22;;;;;;;3.15;1.63;;;;;;;;;;5075352;28;20454;-67
2022/09/05 01:25:06;;;;;;;5.18;2.13;;;;;;;;;;5077116;28;20035;-67
2022/09/05 01:27:50;;;;;;;2.42;1.83;;;;;;;;;;5087628;28;20443;-67
2022/09/05 01:30:20;;;;;;;7.30;1.80;;;;;;;;;;5091388;28;20024;-69
2022/09/05 01:32:45;;;;;;;;;;;;;;;;;;5093838;28;20028;-71
2022/09/05 01:35:29;;;;;;;4.18;2.13;;;;;;;;;;5093267;28;19915;-67
2022/09/05 01:38:06;;;;;;;5.30;2.28;;;;;;;;;;5093319;28;20052;-68
2022/09/05 01:40:51;;;;;;;3.20;2.15;;;;;;;;;;5092615;28;20041;-67
2022/09/05 01:43:33;;;;;;;5.47;1.90;;;;;;;;;;5085727;28;20521;-69
2022/09/05 01:46:05;;;;;;;2.65;1.83;;;;;;;;;;5092164;28;20035;-67
2022/09/05 01:48:49;;;;;;;4.40;2.22;;;;;;;;;;5092825;28;20089;-67
2022/09/05 01:51:39;;;;;;;3.00;2.10;;;;;;;;;;5092910;28;20031;-67
2022/09/05 01:54:16;;;;;;;3.90;2.10;;;;;;;;;;5092955;28;20020;-67
2022/09/05 01:56:51;;;;;;;4.18;2.25;;;;;;;;;;5091953;28;22725;-67
2022/09/05 01:59:19;;;;;;;4.18;2.80;;;;;;;;;;5090737;28;20020;-67
2022/09/05 02:01:51;;;;;;;4.07;2.10;;;;;;;;;;5090267;28;20016;-69
2022/09/05 02:04:31;;;;;;;4.47;2.25;;;;;;;;;;5092934;28;20073;-67
2022/09/05 02:06:56;;;;;;;;;;;;;;;;;;5085271;28;20020;-68
2022/09/05 02:09:21;;;;;;;4.63;2.28;;;;;;;;;;5082874;28;19915;-67
2022/09/05 02:11:57;;;;;;;3.85;2.83;;;;;;;;;;5089868;28;20028;-67
2022/09/05 02:14:27;;;;;;;3.35;2.28;;;;;;;;;;5091311;28;20020;-66
2022/09/05 02:16:54;;;;;;;2.90;2.15;;;;;;;;;;5092533;28;20013;-67
2022/09/05 02:19:24;;;;;;;6.35;2.30;;;;;;;;;;5091794;28;20035;-68
2022/09/05 02:21:56;;;;;;;3.50;2.00;;;;;;;;;;5081647;28;20039;-71
2022/09/05 02:24:24;;;;;;;3.55;2.25;;;;;;;;;;5092690;28;20052;-70
2022/09/05 02:26:58;;;;;;;5.05;2.50;;;;;;;;;;5092037;28;20065;-69
2022/09/05 02:29:28;;;;;;;3.83;2.05;;;;;;;;;;5091184;28;20031;-68
2022/09/05 02:31:57;;;;;;;6.85;2.75;;;;;;;;;;5092372;28;20020;-67
2022/09/05 02:34:25;;;;;;;7.78;2.33;;;;;;;;;;5085042;28;20024;-69
2022/09/05 02:37:03;;;;;;;5.85;2.35;;;;;;;;;;5091650;28;20107;-70
2022/09/05 02:39:34;;;;;;;5.90;3.00;;;;;;;;;;5092937;28;20071;-69
2022/09/05 02:42:22;;;;;;;3.17;2.17;;;;;;;;;;5090339;28;20016;-67
2022/09/05 02:45:05;;;;;;;4.45;2.50;;;;;;;;;;5085164;28;20032;-67
2022/09/05 02:47:36;;;;;;;2.70;2.15;;;;;;;;;;5091400;28;20012;-69
2022/09/05 02:50:09;;;;;;;2.90;2.13;;;;;;;;;;5092680;28;20024;-67
2022/09/05 02:52:36;;;;;;;4.75;2.20;;;;;;;;;;5090411;28;20622;-66
2022/09/05 02:55:03;;;;;;;3.88;2.40;;;;;;;;;;5089109;28;20506;-69
2022/09/05 02:57:46;;;;;;;4.03;2.20;;;;;;;;;;5091280;28;20024;-67
2022/09/05 03:00:14;;;;;;;2.58;2.00;;;;;;;;;;5091119;28;20554;-69
2022/09/05 03:03:00;;;;;;;3.50;2.60;;;;;;;;;;5085261;28;20089;-67
2022/09/05 03:05:28;;;;;;;4.15;3.13;;;;;;;;;;5089646;28;20046;-67
2022/09/05 03:08:02;;;;;;;3.90;2.65;;;;;;;;;;5087423;28;20020;-67
2022/09/05 03:10:43;;;;;;;3.65;2.45;;;;;;;;;;5088635;28;20146;-67
2022/09/05 03:13:27;;;;;;;7.78;2.15;;;;;;;;;;5089801;28;20028;-68
2022/09/05 03:16:05;;;;;;;5.88;2.72;;;;;;;;;;5074402;28;20039;-67
2022/09/05 03:18:43;;;;;;;4.25;2.30;;;;;;;;;;5074349;28;20028;-67
2022/09/05 03:21:34;;;;;;;5.85;2.70;;;;;;;;;;5088820;28;20032;-67
2022/09/05 03:24:18;;;;;;;5.20;3.03;;;;;;;;;;5084084;28;20023;-67
2022/09/05 03:27:02;;;;;;;4.15;2.70;;;;;;;;;;5085519;28;20081;-68
2022/09/05 03:29:30;;;;;;;6.43;2.50;;;;;;;;;;5082137;28;20070;-68
2022/09/05 03:32:00;;;;;;;6.05;2.58;;;;;;;;;;5089876;28;20061;-67
2022/09/05 03:34:28;;;;;;;4.72;2.35;;;;;;;;;;5090703;28;20043;-67
2022/09/05 03:37:09;;;;;;;4.47;2.25;;;;;;;;;;5088576;28;20027;-66
2022/09/05 03:39:34;;;;;;;;;;;;;;;;;;5084619;28;20058;-69
2022/09/05 03:42:05;;;;;;;3.97;2.60;;;;;;;;;;5088809;28;19947;-68
2022/09/05 03:44:30;;;;;;;3.28;2.60;;;;;;;;;;5089863;28;20031;-69
2022/09/05 03:47:22;;;;;;;2.85;2.25;;;;;;;;;;5075096;28;20036;-68
2022/09/05 03:49:50;;;;;;;5.22;2.83;;;;;;;;;;5077695;28;20055;-67
2022/09/05 03:52:24;;;;;;;4.03;2.80;;;;;;;;;;5088183;28;20016;-67
2022/09/05 03:55:04;;;;;;;3.30;2.15;;;;;;;;;;5088664;28;20031;-67
2022/09/05 03:57:59;;;;;;;3.55;2.60;;;;;;;;;;5090315;28;20024;-67
2022/09/05 04:00:26;;;;;;;6.63;2.40;;;;;;;;;;5071512;28;20035;-69
2022/09/05 04:03:09;;;;;;;4.10;2.60;;;;;;;;;;5080798;28;20028;-67
2022/09/05 04:05:37;;;;;;;4.72;3.08;;;;;;;;;;5087968;28;20106;-68
2022/09/05 04:08:08;;;;;;;3.92;2.53;;;;;;;;;;5071571;28;20028;-67
2022/09/05 04:10:50;;;;;;;3.47;2.30;;;;;;;;;;5081600;28;20028;-67
2022/09/05 04:13:15;;;;;;;4.35;2.67;;;;;;;;;;5087749;28;20024;-66
2022/09/05 04:15:42;;;;;;;3.55;2.67;;;;;;;;;;5086115;28;20068;-67
2022/09/05 04:18:20;;;;;;;4.72;2.90;;;;;;;;;;5084406;28;20080;-67
2022/09/05 04:20:48;;;;;;;9.65;2.67;;;;;;;;;;5081381;28;20050;-69
2022/09/05 04:23:22;;;;;;;4.57;2.38;;;;;;;;;;5083585;28;20031;-69
2022/09/05 04:26:06;;;;;;;3.92;2.72;;;;;;;;;;5074256;28;20024;-67
2022/09/05 04:28:39;;;;;;;5.78;2.67;;;;;;;;;;5088170;28;20507;-67
2022/09/05 04:31:27;;;;;;;3.45;2.55;;;;;;;;;;5089183;28;20040;-67
2022/09/05 04:34:06;;;;;;;4.20;2.45;;;;;;;;;;5077010;28;20550;-67
2022/09/05 04:36:33;;;;;;;3.60;2.58;;;;;;;;;;5085161;28;20028;-67
2022/09/05 04:39:07;;;;;;;4.95;2.88;;;;;;;;;;5089937;28;20054;-69
2022/09/05 04:41:34;;;;;;;6.82;3.03;;;;;;;;;;5087210;28;20056;-67
2022/09/05 04:44:01;;;;;;;6.25;2.47;;;;;;;;;;5089079;28;20015;-67
2022/09/05 04:46:30;;;;;;;5.85;2.65;;;;;;;;;;5082497;28;20019;-67
2022/09/05 04:49:10;;;;;;;8.95;3.20;;;;;;;;;;5081324;28;20036;-68
2022/09/05 04:51:51;;;;;;;3.88;2.85;;;;;;;;;;5079253;28;20081;-66
2022/09/05 04:54:16;;;;;;;;;;;;;;;;;;5087604;28;20024;-67
2022/09/05 04:56:43;;;;;;;11.20;3.40;;;;;;;;;;5087689;28;19933;-67
2022/09/05 04:59:16;;;;;;;6.03;3.00;;;;;;;;;;5087777;28;20441;-67
2022/09/05 05:01:47;;;;;;;6.10;3.45;;;;;;;;;;5081256;28;20020;-67
2022/09/05 05:04:16;;;;;;;8.80;2.88;;;;;;;;;;5081417;28;20103;-66
2022/09/05 05:06:53;;;;;;;4.97;2.90;;;;;;;;;;5091145;28;20020;-67
2022/09/05 05:09:23;;;;;;;5.95;3.03;;;;;;;;;;5076696;28;20699;-67
2022/09/05 05:11:51;;;;;;;4.65;3.30;;;;;;;;;;5090432;28;20026;-67
2022/09/05 05:14:21;;;;;;;7.75;3.45;;;;;;;;;;5089412;28;20106;-67
2022/09/05 05:16:51;;;;;;;6.13;3.75;;;;;;;;;;5087907;28;20020;-67
2022/09/05 05:19:19;;;;;;;8.38;3.50;;;;;;;;;;5089548;28;20029;-69
2022/09/05 05:21:46;;;;;;;4.38;3.25;;;;;;;;;;5087579;28;20027;-68
2022/09/05 05:24:15;;;;;;;5.30;3.22;;;;;;;;;;5081168;28;20489;-67
2022/09/05 05:26:48;;;;;;;8.15;3.97;;;;;;;;;;5079478;28;20384;-68
2022/09/05 05:29:19;;;;;;;5.80;3.75;;;;;;;;;;5081159;28;20052;-67
2022/09/05 05:31:55;;;;;;;6.00;3.47;;;;;;;;;;5089112;28;20168;-67
2022/09/05 05:34:24;;;;;;;5.32;3.25;;;;;;;;;;5083549;28;20016;-68
2022/09/05 05:36:56;;;;;;;7.43;3.50;;;;;;;;;;5088784;28;20020;-67
2022/09/05 05:39:25;;;;;;;5.60;3.40;;;;;;;;;;5072618;28;20377;-67
2022/09/05 05:41:52;;;;;;;10.85;3.33;;;;;;;;;;5086619;28;20111;-67
2022/09/05 05:44:19;;;;;;;6.75;2.90;;;;;;;;;;5089468;28;20444;-67
2022/09/05 05:47:06;;;;;;;6.75;2.95;;;;;;;;;;5088246;28;20043;-68
2022/09/05 05:49:50;;;;;;;9.35;3.10;;;;;;;;;;5088498;28;20027;-67
2022/09/05 05:52:33;;;;;;;8.27;2.75;;;;;;;;;;5087518;28;20077;-67
2022/09/05 05:55:05;;;;;;;6.13;2.88;;;;;;;;;;5081670;28;20772;-67
2022/09/05 05:57:37;;;;;;;5.38;3.45;;;;;;;;;;5083233;28;20043;-67
2022/09/05 06:00:03;;;;;;;9.32;3.72;;;;;;;;;;5082519;28;20508;-69
2022/09/05 06:02:48;;;;;;;5.65;2.90;;;;;;;;;;5083871;28;20103;-67
2022/09/05 06:05:17;;;;;;;5.63;2.90;;;;;;;;;;5056016;28;20032;-67
2022/09/05 06:08:01;;;;;;;4.63;2.40;;;;;;;;;;5080225;28;20384;-67
2022/09/05 06:10:39;;;;;;;9.52;2.92;;;;;;;;;;5086876;28;20027;-67
2022/09/05 06:13:16;;;;;;;6.80;2.60;;;;;;;;;;5079443;28;20066;-67
2022/09/05 06:15:42;;;;;;;7.05;2.97;;;;;;;;;;5084073;28;20055;-68
2022/09/05 06:18:10;;;;;;;8.90;3.22;;;;;;;;;;5089191;28;20055;-67
2022/09/05 06:20:42;;;;;;;4.30;2.65;;;;;;;;;;5078463;28;20112;-67
2022/09/05 06:23:22;;;;;;;9.25;3.00;;;;;;;;;;5087371;28;20407;-68
2022/09/05 06:25:47;;;;;;;;;;;;;;;;;;5082745;28;20039;-68
2022/09/05 06:28:12;;;;;;;6.57;2.90;;;;;;;;;;5090027;28;19912;-68
2022/09/05 06:30:46;;;;;;;4.77;2.70;;;;;;;;;;5085462;28;20445;-68
2022/09/05 06:33:38;;;;;;;6.03;2.47;;;;;;;;;;5089277;28;20106;-68
2022/09/05 06:36:12;;;;;;;4.43;2.90;;;;;;;;;;5068198;28;20129;-68
2022/09/05 06:38:41;;;;;;;7.80;3.13;;;;;;;;;;5075398;28;20017;-68
2022/09/05 06:41:18;;;;;;;3.20;2.33;;;;;;;;;;5090957;28;20476;-68
2022/09/05 06:44:02;;;;;;;3.75;2.20;;;;;;;;;;5090705;28;20027;-69
2022/09/05 06:46:34;;;;;;;3.25;2.17;;;;;;;;;;5091492;28;20032;-69
2022/09/05 06:49:03;;;;;;;4.05;2.35;;;;;;;;;;5089970;28;20131;-69
2022/09/05 06:51:31;;;;;;;5.18;2.30;;;;;;;;;;5091837;28;20032;-69
2022/09/05 06:54:00;;;;;;;3.45;2.30;;;;;;;;;;5088579;28;20387;-70
2022/09/05 06:56:51;;;;;;;9.05;2.22;;;;;;;;;;5091112;28;20020;-69
2022/09/05 06:59:33;;;;;;;8.50;2.30;;;;;;;;;;5081796;28;20024;-69
2022/09/05 07:02:07;;;;;;;3.65;1.63;;;;;;;;;;5082869;28;20568;-69
2022/09/05 07:04:39;;;;;;;4.65;2.05;;;;;;;;;;5089339;28;20032;-69
2022/09/05 07:07:21;;;;;;;7.25;1.92;;;;;;;;;;5082482;28;20024;-70
2022/09/05 07:10:12;;;;;;;2.20;1.92;;;;;;;;;;5088168;28;20043;-69
2022/09/05 07:12:58;;;;;;;4.55;2.20;;;;;;;;;;5087258;28;20085;-69
2022/09/05 07:15:42;;;;;;;4.30;1.75;;;;;;;;;;5076915;28;20028;-69
2022/09/05 07:18:13;;;;;;;4.90;1.50;;;;;;;;;;5086355;28;20024;-69
2022/09/05 07:20:49;;;;;;;4.25;1.52;;;;;;;;;;5086274;28;20772;-70
2022/09/05 07:23:18;;;;;;;2.45;1.50;;;;;;;;;;5083299;28;20047;-69
2022/09/05 07:25:46;;;;;;;7.53;1.73;;;;;;;;;;5089706;28;20024;-69
2022/09/05 07:28:13;;;;;;;2.88;1.63;;;;;;;;;;5084725;28;20024;-69
2022/09/05 07:30:39;;;;;;;2.63;1.23;;;;;;;;;;5083883;28;20073;-69
2022/09/05 07:33:05;;;;;;;5.57;1.40;;;;;;;;;;5088844;28;20036;-70
2022/09/05 07:35:36;;;;;;;3.85;1.92;;;;;;;;;;5088830;28;20322;-70
2022/09/05 07:38:13;;;;;;;1.95;1.63;;;;;;;;;;5090115;28;20020;-70
2022/09/05 07:40:43;;;;;;;2.22;1.40;;;;;;;;;;5086716;28;20077;-69
2022/09/05 07:43:10;;;;;;;2.05;1.52;;;;;;;;;;5088934;28;20542;-70
2022/09/05 07:45:44;;;;;;;1.92;1.35;;;;;;;;;;5085923;28;20027;-70
2022/09/05 07:48:11;;;;;;;5.20;1.90;;;;;;;;;;5087412;28;20020;-70
2022/09/05 07:50:49;;;;;;;5.10;1.40;;;;;;;;;;5088418;28;20031;-70
2022/09/05 07:53:15;;;;;;;2.78;1.50;;;;;;;;;;5084924;28;20066;-70
2022/09/05 07:55:40;;;;;;;1.45;1.25;;;;;;;;;;5088499;28;20102;-70
2022/09/05 07:58:07;;;;;;;2.50;1.40;;;;;;;;;;5086688;28;20103;-70
2022/09/05 08:00:33;;;;;;;5.95;1.33;;;;;;;;;;5088037;28;20115;-70
2022/09/05 08:03:00;;;;;;;3.58;1.52;;;;;;;;;;5087218;28;20446;-70
2022/09/05 08:05:26;;;;;;;6.03;1.35;;;;;;;;;;5071044;28;20028;-70
2022/09/05 08:07:54;;;;;;;1.52;1.15;;;;;;;;;;5073624;28;20025;-70
2022/09/05 08:10:19;;;;;;;3.22;1.27;;;;;;;;;;5084554;28;20039;-70
2022/09/05 08:12:48;;;;;;;3.10;1.20;;;;;;;;;;5084324;28;20103;-70
2022/09/05 08:15:17;;;;;;;0.70;0.63;;;;;;;;;;5087221;28;20389;-70
2022/09/05 08:17:42;;;;;;;;;;;;;;;;;;5088334;28;20396;-70
2022/09/05 08:20:07;;;;;;;2.50;1.35;;;;;;;;;;5088622;28;20275;-70
2022/09/05 08:22:46;;;;;;;3.77;1.47;;;;;;;;;;5083122;28;20052;-70
2022/09/05 08:25:16;;;;;;;1.80;1.17;;;;;;;;;;5076314;28;20048;-71
2022/09/05 08:27:41;;;;;;;6.28;1.50;;;;;;;;;;5085337;28;20019;-70
2022/09/05 08:30:09;;;;;;;0.95;0.75;;;;;;;;;;5074739;28;20028;-70
2022/09/05 08:32:53;;;;;;;1.63;1.23;;;;;;;;;;5085959;28;20039;-71
2022/09/05 08:35:26;;;;;;;2.50;1.30;;;;;;;;;;5083604;28;20028;-71
2022/09/05 08:37:53;;;;;;;3.67;1.60;;;;;;;;;;5088103;28;20020;-71
2022/09/05 08:40:25;;;;;;;2.42;1.27;;;;;;;;;;5087688;28;20063;-70
2022/09/05 08:43:07;;;;;;;3.38;1.55;;;;;;;;;;5087539;28;20069;-70
2022/09/05 08:45:35;;;;;;;1.50;1.25;;;;;;;;;;5088268;28;20096;-70
2022/09/05 08:48:06;;;;;;;4.63;1.30;;;;;;;;;;5082499;28;20016;-70
2022/09/05 08:50:50;;;;;;;2.17;1.08;;;;;;;;;;5086543;28;20032;-70
2022/09/05 08:53:21;;;;;;;3.30;1.10;;;;;;;;;;5082706;28;20110;-69
2022/09/05 08:55:46;;;;;;;2.05;1.23;;;;;;;;;;5084021;28;20066;-69
2022/09/05 08:58:25;;;;;;;2.10;1.07;;;;;;;;;;5088061;28;20020;-70
2022/09/05 09:00:54;;;;;;;3.45;1.33;;;;;;;;;;5079949;28;20103;-69
2022/09/05 09:03:22;;;;;;;8.38;1.10;;;;;;;;;;5075835;28;20021;-70
2022/09/05 09:05:53;;;;;;;1.90;1.30;;;;;;;;;;5079936;28;20070;-69
2022/09/05 09:08:24;;;;;;;1.48;1.27;;;;;;;;;;5076351;28;20111;-70
2022/09/05 09:11:02;;;;;;;2.38;1.15;;;;;;;;;;5088123;28;20369;-69
2022/09/05 09:13:46;;;;;;;2.55;1.30;;;;;;;;;;5082306;28;20027;-68
2022/09/05 09:16:36;;;;;;;8.90;1.33;;;;;;;;;;5074918;28;20069;-69
2022/09/05 09:19:12;;;;;;;1.83;0.90;;;;;;;;;;5086298;28;20020;-68
2022/09/05 09:21:41;;;;;;;7.78;1.30;;;;;;;;;;5081093;28;20115;-68
2022/09/05 09:24:09;;;;;;;1.95;1.30;;;;;;;;;;5079090;28;20020;-68
2022/09/05 09:26:40;;;;;;;3.53;1.20;;;;;;;;;;5087722;28;20396;-68
2022/09/05 09:29:07;;;;;;;5.38;1.58;;;;;;;;;;5087081;28;20032;-69
2022/09/05 09:31:42;;;;;;;1.98;1.00;;;;;;;;;;5089116;28;20100;-68
2022/09/05 09:34:09;;;;;;;1.45;1.08;;;;;;;;;;5086717;28;20375;-69
2022/09/05 09:36:53;;;;;;;4.90;1.20;;;;;;;;;;5086423;28;20035;-68
2022/09/05 09:39:33;;;;;;;2.55;1.33;;;;;;;;;;5085739;28;20692;-69
2022/09/05 09:42:17;;;;;;;10.85;1.15;;;;;;;;;;5088125;28;20020;-68
2022/09/05 09:45:09;;;;;;;3.53;1.30;;;;;;;;;;5090162;28;20020;-69
2022/09/05 09:47:40;;;;;;;4.47;1.10;;;;;;;;;;5088489;28;20039;-68
2022/09/05 09:50:11;;;;;;;1.65;1.13;;;;;;;;;;5087417;28;20024;-69
2022/09/05 09:52:45;;;;;;;1.63;1.20;;;;;;;;;;5086872;28;20055;-69
2022/09/05 09:55:29;;;;;;;1.77;1.20;;;;;;;;;;5091099;28;20027;-69
2022/09/05 09:58:20;;;;;;;2.78;1.27;;;;;;;;;;5091098;28;20542;-68
2022/09/05 10:01:05;;;;;;;2.88;1.08;;;;;;;;;;5059795;28;20028;-69
2022/09/05 10:03:43;;;;;;;2.53;1.23;;;;;;;;;;5087872;28;20480;-69
2022/09/05 10:06:26;;;;;;;3.90;1.27;;;;;;;;;;5085051;28;20072;-69
2022/09/05 10:08:57;;;;;;;3.33;1.20;;;;;;;;;;5088140;28;20035;-69
2022/09/05 10:11:37;;;;;;;2.28;0.90;;;;;;;;;;5070548;28;20380;-70
2022/09/05 10:14:11;;;;;;;6.45;1.42;;;;;;;;;;5090549;28;20154;-69
2022/09/05 10:16:46;;;;;;;3.38;1.48;;;;;;;;;;5086811;28;20552;-69
2022/09/05 10:19:27;;;;;;;2.13;1.10;;;;;;;;;;5090560;28;20020;-69
2022/09/05 10:22:01;;;;;;;1.80;0.95;;;;;;;;;;5088137;28;20039;-69
2022/09/05 10:24:45;;;;;;;2.10;1.60;;;;;;;;;;5088822;28;20024;-69
2022/09/05 10:27:22;;;;;;;3.58;1.67;;;;;;;;;;5086297;28;20042;-70
2022/09/05 10:30:07;;;;;;;9.77;1.48;;;;;;;;;;5080071;28;20077;-68
2022/09/05 10:32:32;;;;;;;3.53;1.40;;;;;;;;;;5087213;28;20514;-69
2022/09/05 10:34:58;;;;;;;2.85;1.48;;;;;;;;;;5088237;28;20178;-69
2022/09/05 10:37:30;;;;;;;9.38;1.30;;;;;;;;;;5081272;28;20020;-68
2022/09/05 10:39:58;;;;;;;2.70;1.33;;;;;;;;;;5089368;28;20016;-69
2022/09/05 10:42:33;;;;;;;2.25;1.20;;;;;;;;;;5083664;28;20016;-69
2022/09/05 10:45:01;;;;;;;3.70;1.35;;;;;;;;;;5084322;28;20024;-69
2022/09/05 10:47:26;;;;;;;2.85;1.15;;;;;;;;;;5088208;28;20032;-69
2022/09/05 10:50:10;;;;;;;2.23;1.13;;;;;;;;;;5090477;28;20019;-69
2022/09/05 10:52:56;;;;;;;2.60;1.27;;;;;;;;;;5088149;28;20028;-69
2022/09/05 10:55:21;;;;;;;3.35;1.40;;;;;;;;;;5088390;28;20093;-68
2022/09/05 10:57:56;;;;;;;6.70;1.40;;;;;;;;;;5088633;28;20028;-69
2022/09/05 11:00:21;;;;;;;3.15;1.63;;;;;;;;;;5086247;28;20111;-69
2022/09/05 11:02:48;;;;;;;3.80;1.60;;;;;;;;;;5088081;28;20115;-69
2022/09/05 11:05:16;;;;;;;4.25;1.30;;;;;;;;;;5087291;28;20016;-69
2022/09/05 11:08:00;;;;;;;1.88;1.20;;;;;;;;;;5089638;28;20028;-68
2022/09/05 11:10:25;;;;;;;3.03;1.00;;;;;;;;;;5087488;28;20019;-68
2022/09/05 11:12:57;;;;;;;2.40;1.13;;;;;;;;;;5088284;28;20024;-69
2022/09/05 11:15:31;;;;;;;2.13;1.23;;;;;;;;;;5081023;28;20024;-69
2022/09/05 11:18:04;;;;;;;6.68;1.40;;;;;;;;;;5084640;28;20020;-69
2022/09/05 11:20:48;;;;;;;6.78;1.25;;;;;;;;;;5083857;28;20976;-69
2022/09/05 11:23:29;;;;;;;5.07;1.38;;;;;;;;;;5085353;28;20115;-69
2022/09/05 11:25:59;;;;;;;3.67;1.48;;;;;;;;;;5088346;28;20032;-68
2022/09/05 11:28:24;;;;;;;;;;;;;;;;;;5089732;28;20120;-69
2022/09/05 11:30:52;;;;;;;3.00;1.20;;;;;;;;;;5091342;28;19983;-69
2022/09/05 11:33:23;;;;;;;4.07;1.08;;;;;;;;;;5090395;28;20028;-69
2022/09/05 11:35:53;;;;;;;6.20;1.63;;;;;;;;;;5088469;28;20081;-69
2022/09/05 11:38:30;;;;;;;2.38;1.15;;;;;;;;;;5081916;28;20107;-69
2022/09/05 11:41:14;;;;;;;6.55;1.10;;;;;;;;;;5086926;28;20032;-68
2022/09/05 11:43:54;;;;;;;1.58;0.80;;;;;;;;;;5076519;28;20073;-69
2022/09/05 11:46:38;;;;;;;8.05;1.80;;;;;;;;;;5081732;28;20103;-69
2022/09/05 11:49:21;;;;;;;4.25;1.30;;;;;;;;;;5088880;28;20054;-69
2022/09/05 11:52:05;;;;;;;4.28;1.20;;;;;;;;;;5088549;28;20024;-69
2022/09/05 11:54:49;;;;;;;8.18;1.25;;;;;;;;;;5082902;28;20119;-68
2022/09/05 11:57:20;;;;;;;7.25;2.13;;;;;;;;;;5088745;28;20048;-69
2022/09/05 12:00:02;;;;;;;5.97;1.33;;;;;;;;;;5084708;28;20069;-69
2022/09/05 12:03:00;;;;;;;3.20;1.30;;;;;;;;;;5083476;28;20035;-69
2022/09/05 12:05:34;;;;;;;16.23;1.67;;;;;;;;;;5025899;28;20043;-69
2022/09/05 12:08:04;;;;;;;3.45;1.10;;;;;;;;;;5079667;28;20103;-69
2022/09/05 12:10:52;;;;;;;4.10;1.27;;;;;;;;;;5084974;28;20051;-69
2022/09/05 12:13:35;;;;;;;4.63;1.35;;;;;;;;;;5086095;28;20020;-69
2022/09/05 12:16:06;;;;;;;6.18;1.40;;;;;;;;;;5090355;28;20091;-69
2022/09/05 12:18:48;;;;;;;2.30;1.52;;;;;;;;;;5090279;28;20141;-69
2022/09/05 12:21:22;;;;;;;2.22;1.30;;;;;;;;;;5090012;28;20008;-69
2022/09/05 12:23:50;;;;;;;7.05;1.33;;;;;;;;;;5088592;28;20039;-70
2022/09/05 12:26:22;;;;;;;4.63;1.55;;;;;;;;;;5085348;28;20028;-69
2022/09/05 12:28:54;;;;;;;2.53;1.20;;;;;;;;;;5088798;28;20098;-69
2022/09/05 12:31:38;;;;;;;2.85;1.30;;;;;;;;;;5086924;28;20016;-70
2022/09/05 12:34:08;;;;;;;2.08;1.45;;;;;;;;;;5081987;28;20025;-69
2022/09/05 12:36:46;;;;;;;7.25;1.35;;;;;;;;;;5088021;28;20020;-69
2022/09/05 12:39:17;;;;;;;3.30;1.25;;;;;;;;;;5087860;28;20020;-68
2022/09/05 12:41:59;;;;;;;2.78;1.25;;;;;;;;;;5085749;28;20015;-70
2022/09/05 12:44:35;;;;;;;7.65;1.20;;;;;;;;;;5076742;28;20025;-69
2022/09/05 12:47:07;;;;;;;1.70;1.13;;;;;;;;;;5085361;28;20043;-70
2022/09/05 12:49:35;;;;;;;6.38;1.38;;;;;;;;;;5086571;28;20042;-70
2022/09/05 12:52:03;;;;;;;4.65;0.90;;;;;;;;;;5087270;28;20070;-69
2022/09/05 12:54:32;;;;;;;2.13;0.85;;;;;;;;;;5084529;28;20979;-70
2022/09/05 12:57:00;;;;;;;6.47;1.10;;;;;;;;;;5075952;28;20557;-69
2022/09/05 12:59:26;;;;;;;1.75;1.08;;;;;;;;;;5080183;28;20365;-70
2022/09/05 13:02:02;;;;;;;7.63;1.13;;;;;;;;;;5082749;28;20040;-68
2022/09/05 13:04:29;;;;;;;4.43;1.25;;;;;;;;;;5085403;28;20102;-70
2022/09/05 13:06:59;;;;;;;4.55;1.40;;;;;;;;;;5085312;28;20024;-68
2022/09/05 13:09:27;;;;;;;1.15;0.95;;;;;;;;;;5086584;28;20050;-68
2022/09/05 13:12:08;;;;;;;5.35;1.38;;;;;;;;;;5085534;28;20028;-68
2022/09/05 13:14:44;;;;;;;2.88;1.20;;;;;;;;;;5075099;28;20121;-71
2022/09/05 13:17:12;;;;;;;3.30;1.52;;;;;;;;;;5083339;28;20457;-70
2022/09/05 13:19:50;;;;;;;11.00;1.50;;;;;;;;;;5079896;28;20035;-70
2022/09/05 13:22:17;;;;;;;6.50;1.33;;;;;;;;;;5085943;28;20081;-70
2022/09/05 13:24:46;;;;;;;1.90;0.95;;;;;;;;;;5086354;28;20028;-71
2022/09/05 13:27:23;;;;;;;3.13;1.17;;;;;;;;;;5088049;28;20035;-69
2022/09/05 13:29:53;;;;;;;4.07;1.30;;;;;;;;;;5088635;28;20066;-70
2022/09/05 13:32:18;;;;;;;2.95;1.10;;;;;;;;;;5093806;28;20024;-70
2022/09/05 13:34:54;;;;;;;1.50;1.03;;;;;;;;;;5094240;28;20050;-70
2022/09/05 13:37:24;;;;;;;2.00;1.10;;;;;;;;;;5086137;28;20255;-70
2022/09/05 13:39:58;;;;;;;2.50;1.33;;;;;;;;;;5086939;28;20020;-69
2022/09/05 13:42:26;;;;;;;2.03;0.98;;;;;;;;;;5090431;28;20079;-69
2022/09/05 13:44:56;;;;;;;4.63;1.25;;;;;;;;;;5090409;28;20035;-70
2022/09/05 13:47:38;;;;;;;3.63;1.02;;;;;;;;;;5086529;28;20028;-70
2022/09/05 13:50:21;;;;;;;6.07;0.95;;;;;;;;;;5092500;28;20032;-70
2022/09/05 13:52:56;;;;;;;1.35;0.90;;;;;;;;;;5092491;28;20019;-70
2022/09/05 13:55:28;;;;;;;1.67;1.00;;;;;;;;;;5088276;28;20093;-69
2022/09/05 13:57:56;;;;;;;2.40;1.00;;;;;;;;;;5075360;28;20362;-69
2022/09/05 14:00:32;;;;;;;1.55;0.90;;;;;;;;;;5092359;28;20473;-69
2022/09/05 14:03:13;;;;;;;6.60;1.10;;;;;;;;;;5083977;28;20549;-70
2022/09/05 14:05:57;;;;;;;1.20;0.80;;;;;;;;;;5083013;28;20024;-71
2022/09/05 14:08:32;;;;;;;1.73;1.02;;;;;;;;;;5079567;28;20048;-68
2022/09/05 14:11:35;;;;;;;2.38;1.25;;;;;;;;;;5089541;28;20031;-70
2022/09/05 14:14:16;;;;;;;3.80;1.05;;;;;;;;;;5082457;28;20044;-69
2022/09/05 14:16:43;;;;;;;1.95;1.10;;;;;;;;;;5090698;28;20031;-70
2022/09/05 14:22:00;;;;;;;2.40;0.98;;;;;;;;;;5091907;28;20241;-69
2022/09/05 14:24:26;;;;;;;2.30;1.00;;;;;;;;;;5088043;28;20044;-69
2022/09/05 14:27:05;;;;;;;1.83;1.10;;;;;;;;;;5089776;28;20055;-70
2022/09/05 14:29:47;;;;;;;1.47;1.03;;;;;;;;;;5084727;28;20024;-70
2022/09/05 14:32:16;;;;;;;2.38;1.20;;;;;;;;;;5085659;28;20350;-70
2022/09/05 14:34:42;;;;;;;3.97;1.42;;;;;;;;;;5086715;28;20093;-70
2022/09/05 14:37:10;;;;;;;4.05;1.10;;;;;;;;;;5085503;28;20024;-67
2022/09/05 14:39:35;;;;;;;1.55;1.27;;;;;;;;;;5088866;28;20705;-70
2022/09/05 14:42:24;;;;;;;4.03;1.20;;;;;;;;;;5087928;28;20042;-70
2022/09/05 14:44:59;;;;;;;2.78;1.13;;;;;;;;;;5069234;28;20036;-70
2022/09/05 14:47:36;;;;;;;2.60;1.25;;;;;;;;;;5090655;28;20105;-70
2022/09/05 14:50:12;;;;;;;3.33;1.02;;;;;;;;;;5089376;28;20035;-69
2022/09/05 14:52:37;;;;;;;2.00;1.20;;;;;;;;;;5087524;28;20031;-70
2022/09/05 14:55:12;;;;;;;6.53;1.10;;;;;;;;;;5091955;28;20095;-70
2022/09/05 14:57:42;;;;;;;2.05;1.05;;;;;;;;;;5084771;28;20127;-70
2022/09/05 15:00:07;;;;;;;;;;;;;;;;;;5084247;28;20026;-70
2022/09/05 15:02:43;;;;;;;1.50;0.70;;;;;;;;;;5085838;28;19922;-69
2022/09/05 15:05:15;;;;;;;1.90;1.00;;;;;;;;;;5088225;28;20067;-66
2022/09/05 15:07:45;;;;;;;5.05;1.00;;;;;;;;;;5089461;28;20028;-70
2022/09/05 15:10:17;;;;;;;1.58;1.05;;;;;;;;;;5089936;28;20427;-70
2022/09/05 15:12:47;;;;;;;1.33;0.88;;;;;;;;;;5085025;28;20020;-68
2022/09/05 15:15:12;;;;;;;2.05;1.10;;;;;;;;;;5085288;28;20723;-68
2022/09/05 15:17:39;;;;;;;1.45;0.98;;;;;;;;;;5087071;28;20040;-68
2022/09/05 15:20:06;;;;;;;1.98;1.00;;;;;;;;;;5089673;28;20032;-66
2022/09/05 15:22:33;;;;;;;1.60;1.08;;;;;;;;;;5084785;28;20021;-70
2022/09/05 15:25:13;;;;;;;5.15;1.75;;;;;;;;;;5078936;28;20028;-68
2022/09/05 15:27:39;;;;;;;2.95;0.85;;;;;;;;;;5076153;28;20020;-70
2022/09/05 15:30:05;;;;;;;2.55;1.08;;;;;;;;;;5090492;28;20020;-70